Time;durP1;ratioP1;P1;durP2;ratioP2;P2;SDS_P1;SDS_P2;PMS_P1;PMS_P2;Temp;Humidity;BMP_temperature;BMP_pressure;BME280_temperature;BME280_humidity;BME280_pressure;Samples;Min_cycle;Max_cycle;Signal;HPM_P1;HPM_P2
2023/05/07 00:00:37;;;;;;;0.60;0.60;;;;;;;;;;5036419;28;20196;-83
2023/05/07 00:03:03;;;;;;;0.60;0.60;;;;;;;;;;5035226;28;20172;-82
2023/05/07 00:05:29;;;;;;;0.50;0.50;;;;;;;;;;5038873;28;20199;-83
2023/05/07 00:07:55;;;;;;;0.63;0.63;;;;;;;;;;5039198;28;20210;-83
2023/05/07 00:10:21;;;;;;;0.60;0.60;;;;;;;;;;5043705;28;20180;-84
2023/05/07 00:12:47;;;;;;;0.50;0.50;;;;;;;;;;5038586;28;20243;-82
2023/05/07 00:15:13;;;;;;;0.50;0.50;;;;;;;;;;5038107;28;20295;-81
2023/05/07 00:17:39;;;;;;;0.57;0.57;;;;;;;;;;5039963;28;20198;-84
2023/05/07 00:20:05;;;;;;;0.60;0.60;;;;;;;;;;5039554;28;20262;-83
2023/05/07 00:22:32;;;;;;;0.60;0.60;;;;;;;;;;5037883;28;20261;-83
2023/05/07 00:24:58;;;;;;;0.50;0.50;;;;;;;;;;5038215;28;20438;-84
2023/05/07 00:27:25;;;;;;;0.40;0.40;;;;;;;;;;5039760;28;20168;-83
2023/05/07 00:29:51;;;;;;;0.53;0.53;;;;;;;;;;5038658;28;20179;-82
2023/05/07 00:32:17;;;;;;;0.60;0.60;;;;;;;;;;5037914;28;20179;-83
2023/05/07 00:34:43;;;;;;;0.60;0.60;;;;;;;;;;5037481;28;20218;-83
2023/05/07 00:37:09;;;;;;;0.70;0.70;;;;;;;;;;5037387;28;20274;-82
2023/05/07 00:39:35;;;;;;;0.60;0.60;;;;;;;;;;5037563;28;20230;-83
2023/05/07 00:42:02;;;;;;;0.50;0.50;;;;;;;;;;5037419;28;20563;-83
2023/05/07 00:44:29;;;;;;;0.50;0.50;;;;;;;;;;5037760;28;20238;-81
2023/05/07 00:46:56;;;;;;;0.60;0.60;;;;;;;;;;5037850;28;20191;-83
2023/05/07 00:49:22;;;;;;;0.57;0.57;;;;;;;;;;5037529;28;20180;-82
2023/05/07 00:51:48;;;;;;;0.40;0.40;;;;;;;;;;5036921;28;20184;-80
2023/05/07 00:54:14;;;;;;;0.60;0.60;;;;;;;;;;5038436;28;20192;-82
2023/05/07 00:56:40;;;;;;;0.50;0.50;;;;;;;;;;5038184;28;20214;-82
2023/05/07 00:59:06;;;;;;;0.70;0.70;;;;;;;;;;5038116;28;20172;-81
2023/05/07 01:01:32;;;;;;;0.43;0.43;;;;;;;;;;5038058;28;20258;-82
2023/05/07 01:03:58;;;;;;;0.50;0.50;;;;;;;;;;5038404;28;20200;-82
2023/05/07 01:06:27;;;;;;;0.67;0.67;;;;;;;;;;5037791;28;20180;-82
2023/05/07 01:08:56;;;;;;;0.50;0.50;;;;;;;;;;5037184;28;20180;-82
2023/05/07 01:11:22;;;;;;;0.50;0.50;;;;;;;;;;5036455;28;20183;-82
2023/05/07 01:13:50;;;;;;;0.50;0.50;;;;;;;;;;5036479;28;20287;-83
2023/05/07 01:16:16;;;;;;;0.50;0.50;;;;;;;;;;5036046;28;20772;-81
2023/05/07 01:18:42;;;;;;;0.50;0.50;;;;;;;;;;5037283;28;20172;-82
2023/05/07 01:21:11;;;;;;;0.50;0.50;;;;;;;;;;5037748;28;20374;-83
2023/05/07 01:23:37;;;;;;;0.60;0.60;;;;;;;;;;5037479;28;20192;-81
2023/05/07 01:26:03;;;;;;;0.50;0.50;;;;;;;;;;5037870;28;20194;-82
2023/05/07 01:28:29;;;;;;;0.50;0.50;;;;;;;;;;5037904;28;20176;-83
2023/05/07 01:30:59;;;;;;;0.50;0.50;;;;;;;;;;5037617;28;20239;-80
2023/05/07 01:33:26;;;;;;;0.50;0.50;;;;;;;;;;5036618;28;20177;-81
2023/05/07 01:35:53;;;;;;;0.67;0.67;;;;;;;;;;5037303;28;20239;-82
2023/05/07 01:38:21;;;;;;;0.50;0.50;;;;;;;;;;5036970;28;20199;-82
2023/05/07 01:40:47;;;;;;;0.47;0.47;;;;;;;;;;5037137;28;20700;-81
2023/05/07 01:43:13;;;;;;;0.40;0.40;;;;;;;;;;5035939;28;20180;-81
2023/05/07 01:45:39;;;;;;;0.50;0.50;;;;;;;;;;5036374;28;20639;-81
2023/05/07 01:48:06;;;;;;;0.50;0.50;;;;;;;;;;5036486;28;20188;-82
2023/05/07 01:50:32;;;;;;;0.50;0.50;;;;;;;;;;5035873;28;20176;-82
2023/05/07 01:52:59;;;;;;;0.40;0.40;;;;;;;;;;5035938;28;20254;-82
2023/05/07 01:55:25;;;;;;;0.60;0.60;;;;;;;;;;5035645;28;20219;-82
2023/05/07 01:57:51;;;;;;;0.60;0.60;;;;;;;;;;5036164;28;20176;-81
2023/05/07 02:00:17;;;;;;;0.40;0.40;;;;;;;;;;5035898;28;20183;-82
2023/05/07 02:02:43;;;;;;;0.50;0.50;;;;;;;;;;5035376;28;20172;-82
2023/05/07 02:05:09;;;;;;;0.57;0.57;;;;;;;;;;5035809;28;20203;-81
2023/05/07 02:07:35;;;;;;;0.40;0.40;;;;;;;;;;5036060;28;20253;-81
2023/05/07 02:10:02;;;;;;;0.60;0.60;;;;;;;;;;5036041;28;20598;-81
2023/05/07 02:12:28;;;;;;;0.50;0.50;;;;;;;;;;5035151;28;20618;-82
2023/05/07 02:14:54;;;;;;;0.60;0.60;;;;;;;;;;5036096;28;20195;-81
2023/05/07 02:17:20;;;;;;;0.43;0.43;;;;;;;;;;5036105;28;20566;-82
2023/05/07 02:19:46;;;;;;;0.50;0.50;;;;;;;;;;5035770;28;20191;-82
2023/05/07 02:22:12;;;;;;;0.50;0.50;;;;;;;;;;5035922;28;20242;-81
2023/05/07 02:24:38;;;;;;;0.50;0.50;;;;;;;;;;5035812;28;20195;-82
2023/05/07 02:27:04;;;;;;;0.60;0.60;;;;;;;;;;5036046;28;20187;-82
2023/05/07 02:29:30;;;;;;;0.60;0.60;;;;;;;;;;5035301;28;20249;-82
2023/05/07 02:31:56;;;;;;;0.50;0.50;;;;;;;;;;5036243;28;20624;-81
2023/05/07 02:34:22;;;;;;;0.60;0.60;;;;;;;;;;5035152;28;20203;-81
2023/05/07 02:36:48;;;;;;;0.50;0.50;;;;;;;;;;5034247;28;20281;-80
2023/05/07 02:39:15;;;;;;;0.60;0.60;;;;;;;;;;5032930;28;20183;-81
2023/05/07 02:41:41;;;;;;;0.50;0.50;;;;;;;;;;5032654;28;20648;-80
2023/05/07 02:44:07;;;;;;;0.50;0.50;;;;;;;;;;5052381;28;20276;-81
2023/05/07 02:46:33;;;;;;;0.43;0.43;;;;;;;;;;5053498;28;20175;-80
2023/05/07 02:48:59;;;;;;;0.50;0.50;;;;;;;;;;5052901;28;20202;-81
2023/05/07 02:51:26;;;;;;;0.43;0.43;;;;;;;;;;5053040;28;20517;-80
2023/05/07 02:53:53;;;;;;;0.53;0.53;;;;;;;;;;5052469;28;20214;-80
2023/05/07 02:56:19;;;;;;;0.60;0.60;;;;;;;;;;5052180;28;20215;-81
2023/05/07 02:58:45;;;;;;;0.57;0.57;;;;;;;;;;5052679;28;20818;-81
2023/05/07 03:01:13;;;;;;;0.60;0.60;;;;;;;;;;5053191;28;20179;-80
2023/05/07 03:03:39;;;;;;;0.60;0.60;;;;;;;;;;5052641;28;20252;-80
2023/05/07 03:06:06;;;;;;;0.50;0.50;;;;;;;;;;5052957;28;20564;-82
2023/05/07 03:08:32;;;;;;;0.50;0.50;;;;;;;;;;5053719;28;20198;-82
2023/05/07 03:10:58;;;;;;;0.47;0.47;;;;;;;;;;5053628;28;20202;-82
2023/05/07 03:13:24;;;;;;;0.50;0.50;;;;;;;;;;5053819;28;20190;-82
2023/05/07 03:15:50;;;;;;;0.50;0.50;;;;;;;;;;5055536;28;20664;-82
2023/05/07 03:18:16;;;;;;;0.40;0.40;;;;;;;;;;5055809;28;20266;-83
2023/05/07 03:20:42;;;;;;;0.50;0.50;;;;;;;;;;5055735;28;20199;-82
2023/05/07 03:23:08;;;;;;;0.60;0.60;;;;;;;;;;5055423;28;20236;-83
2023/05/07 03:25:34;;;;;;;0.50;0.50;;;;;;;;;;5055303;28;20197;-82
2023/05/07 03:28:00;;;;;;;0.53;0.53;;;;;;;;;;5055793;28;20257;-82
2023/05/07 03:30:26;;;;;;;0.40;0.40;;;;;;;;;;5056062;28;20186;-83
2023/05/07 03:32:52;;;;;;;0.60;0.60;;;;;;;;;;5056033;28;20218;-84
2023/05/07 03:35:18;;;;;;;0.50;0.50;;;;;;;;;;5056355;28;20279;-83
2023/05/07 03:37:44;;;;;;;0.50;0.50;;;;;;;;;;5056272;28;20267;-84
2023/05/07 03:40:12;;;;;;;0.60;0.60;;;;;;;;;;5058878;28;20205;-83
2023/05/07 03:42:38;;;;;;;0.50;0.50;;;;;;;;;;5059995;28;20210;-82
2023/05/07 03:45:04;;;;;;;0.50;0.50;;;;;;;;;;5060157;28;20199;-84
2023/05/07 03:47:30;;;;;;;0.50;0.50;;;;;;;;;;5059883;28;20175;-83
2023/05/07 03:49:56;;;;;;;0.40;0.40;;;;;;;;;;5060459;28;20236;-85
2023/05/07 03:52:25;;;;;;;0.50;0.50;;;;;;;;;;5059683;28;20171;-85
2023/05/07 03:54:51;;;;;;;0.60;0.60;;;;;;;;;;5060227;28;20198;-85
2023/05/07 03:57:17;;;;;;;0.60;0.60;;;;;;;;;;5061153;28;20565;-84
2023/05/07 03:59:43;;;;;;;0.60;0.60;;;;;;;;;;5061778;28;20186;-82
2023/05/07 04:02:09;;;;;;;0.50;0.50;;;;;;;;;;5062921;28;20187;-86
2023/05/07 04:04:35;;;;;;;0.60;0.60;;;;;;;;;;5067426;28;20195;-83
2023/05/07 04:07:01;;;;;;;0.60;0.60;;;;;;;;;;5060568;28;20183;-83
2023/05/07 04:09:27;;;;;;;0.60;0.60;;;;;;;;;;5057633;28;20265;-82
2023/05/07 04:11:53;;;;;;;0.70;0.70;;;;;;;;;;5058621;28;20201;-81
2023/05/07 04:14:19;;;;;;;0.60;0.60;;;;;;;;;;5057629;28;20217;-83
2023/05/07 04:16:45;;;;;;;0.60;0.60;;;;;;;;;;5057768;28;20226;-82
2023/05/07 04:19:11;;;;;;;0.70;0.70;;;;;;;;;;5057925;28;20175;-83
2023/05/07 04:21:37;;;;;;;0.60;0.60;;;;;;;;;;5057611;28;20262;-82
2023/05/07 04:24:06;;;;;;;0.60;0.60;;;;;;;;;;5057480;28;20210;-81
2023/05/07 04:26:32;;;;;;;0.63;0.63;;;;;;;;;;5057551;28;20669;-83
2023/05/07 04:28:59;;;;;;;0.80;0.80;;;;;;;;;;5057627;28;20175;-81
2023/05/07 04:31:25;;;;;;;0.50;0.50;;;;;;;;;;5057630;28;20525;-83
2023/05/07 04:33:51;;;;;;;0.43;0.43;;;;;;;;;;5057653;28;20209;-81
2023/05/07 04:36:17;;;;;;;0.60;0.60;;;;;;;;;;5058154;28;20207;-83
2023/05/07 04:38:43;;;;;;;0.63;0.63;;;;;;;;;;5057287;28;20195;-82
2023/05/07 04:41:09;;;;;;;0.70;0.70;;;;;;;;;;5057894;28;20582;-83
2023/05/07 04:43:35;;;;;;;0.50;0.50;;;;;;;;;;5057007;28;20648;-84
2023/05/07 04:46:01;;;;;;;0.60;0.60;;;;;;;;;;5057024;28;20178;-84
2023/05/07 04:48:28;;;;;;;0.60;0.60;;;;;;;;;;5057135;28;20187;-84
2023/05/07 04:50:54;;;;;;;0.50;0.50;;;;;;;;;;5056831;28;20638;-82
2023/05/07 04:53:21;;;;;;;0.60;0.60;;;;;;;;;;5056596;28;20552;-82
2023/05/07 04:55:47;;;;;;;0.57;0.57;;;;;;;;;;5056773;28;20265;-83
2023/05/07 04:58:13;;;;;;;0.60;0.60;;;;;;;;;;5057613;28;20182;-82
2023/05/07 05:00:39;;;;;;;0.60;0.60;;;;;;;;;;5057199;28;20194;-81
2023/05/07 05:03:06;;;;;;;0.50;0.50;;;;;;;;;;5056869;28;20175;-83
2023/05/07 05:05:32;;;;;;;0.60;0.60;;;;;;;;;;5057290;28;20305;-81
2023/05/07 05:07:58;;;;;;;0.50;0.50;;;;;;;;;;5057362;28;20183;-81
2023/05/07 05:10:25;;;;;;;0.50;0.50;;;;;;;;;;5057403;28;20183;-81
2023/05/07 05:12:51;;;;;;;0.57;0.57;;;;;;;;;;5056727;28;20254;-82
2023/05/07 05:15:17;;;;;;;0.50;0.50;;;;;;;;;;5056605;28;20219;-80
2023/05/07 05:17:43;;;;;;;0.60;0.60;;;;;;;;;;5057257;28;20603;-80
2023/05/07 05:20:12;;;;;;;0.50;0.50;;;;;;;;;;5056905;28;20183;-79
2023/05/07 05:22:38;;;;;;;0.53;0.53;;;;;;;;;;5056664;28;20191;-81
2023/05/07 05:25:04;;;;;;;0.40;0.40;;;;;;;;;;5056901;28;20201;-82
2023/05/07 05:27:30;;;;;;;0.40;0.40;;;;;;;;;;5057240;28;20214;-81
2023/05/07 05:29:56;;;;;;;0.60;0.60;;;;;;;;;;5056675;28;20209;-81
2023/05/07 05:32:22;;;;;;;0.60;0.60;;;;;;;;;;5055736;28;20178;-82
2023/05/07 05:34:48;;;;;;;0.60;0.60;;;;;;;;;;5056354;28;20199;-81
2023/05/07 05:37:14;;;;;;;0.43;0.43;;;;;;;;;;5056158;28;20682;-81
2023/05/07 05:39:40;;;;;;;0.50;0.50;;;;;;;;;;5056624;28;20175;-81
2023/05/07 05:42:06;;;;;;;0.60;0.60;;;;;;;;;;5057133;28;20185;-80
2023/05/07 05:44:32;;;;;;;0.50;0.50;;;;;;;;;;5055862;28;20642;-80
2023/05/07 05:46:59;;;;;;;0.53;0.53;;;;;;;;;;5056460;28;20207;-81
2023/05/07 05:49:25;;;;;;;0.47;0.47;;;;;;;;;;5056422;28;20175;-80
2023/05/07 05:51:51;;;;;;;0.50;0.50;;;;;;;;;;5056360;28;20590;-82
2023/05/07 05:54:17;;;;;;;0.50;0.50;;;;;;;;;;5056286;28;20202;-82
2023/05/07 05:56:43;;;;;;;0.57;0.57;;;;;;;;;;5056326;28;20222;-81
2023/05/07 05:59:09;;;;;;;0.60;0.60;;;;;;;;;;5056297;28;20187;-82
2023/05/07 06:01:35;;;;;;;0.40;0.40;;;;;;;;;;5055747;28;20202;-82
2023/05/07 06:04:01;;;;;;;0.40;0.40;;;;;;;;;;5056027;28;20195;-83
2023/05/07 06:06:27;;;;;;;0.57;0.57;;;;;;;;;;5056263;28;20185;-81
2023/05/07 06:08:53;;;;;;;0.60;0.60;;;;;;;;;;5057392;28;20638;-84
2023/05/07 06:11:19;;;;;;;0.50;0.50;;;;;;;;;;5056271;28;20182;-82
2023/05/07 06:13:45;;;;;;;0.53;0.53;;;;;;;;;;5056385;28;20253;-83
2023/05/07 06:16:11;;;;;;;0.60;0.60;;;;;;;;;;5057606;28;20203;-83
2023/05/07 06:18:37;;;;;;;0.40;0.40;;;;;;;;;;5057509;28;20171;-81
2023/05/07 06:21:04;;;;;;;0.30;0.30;;;;;;;;;;5058027;28;20214;-82
2023/05/07 06:23:30;;;;;;;0.40;0.40;;;;;;;;;;5054748;28;20274;-82
2023/05/07 06:25:55;;;;;;;0.30;0.30;;;;;;;;;;5038318;28;20211;-82
2023/05/07 06:28:21;;;;;;;0.50;0.50;;;;;;;;;;5038173;28;20176;-81
2023/05/07 06:30:49;;;;;;;0.50;0.50;;;;;;;;;;5037851;28;20634;-81
2023/05/07 06:33:15;;;;;;;0.60;0.60;;;;;;;;;;5036714;28;20641;-82
2023/05/07 06:35:41;;;;;;;0.40;0.40;;;;;;;;;;5035538;28;20242;-82
2023/05/07 06:38:07;;;;;;;0.60;0.60;;;;;;;;;;5035641;28;20237;-83
2023/05/07 06:40:33;;;;;;;0.60;0.60;;;;;;;;;;5037481;28;20182;-82
2023/05/07 06:42:59;;;;;;;0.60;0.60;;;;;;;;;;5038125;28;20187;-82
2023/05/07 06:45:25;;;;;;;0.57;0.57;;;;;;;;;;5037082;28;20790;-82
2023/05/07 06:47:51;;;;;;;0.53;0.53;;;;;;;;;;5038181;28;20191;-84
2023/05/07 06:50:17;;;;;;;0.40;0.40;;;;;;;;;;5050045;28;20202;-83
2023/05/07 06:52:43;;;;;;;0.53;0.53;;;;;;;;;;5054957;28;20192;-81
2023/05/07 06:55:10;;;;;;;0.40;0.40;;;;;;;;;;5056067;28;20214;-83
2023/05/07 06:57:36;;;;;;;0.50;0.50;;;;;;;;;;5055227;28;20235;-82
2023/05/07 07:00:03;;;;;;;0.40;0.40;;;;;;;;;;5055318;28;20172;-82
2023/05/07 07:02:32;;;;;;;0.47;0.47;;;;;;;;;;5052122;28;20850;-82
2023/05/07 07:04:58;;;;;;;0.40;0.40;;;;;;;;;;5043704;28;20663;-81
2023/05/07 07:07:24;;;;;;;0.50;0.50;;;;;;;;;;5035953;28;20179;-82
2023/05/07 07:09:51;;;;;;;0.40;0.40;;;;;;;;;;5033781;28;20698;-81
2023/05/07 07:12:17;;;;;;;0.40;0.40;;;;;;;;;;5033187;28;20176;-82
2023/05/07 07:14:43;;;;;;;0.30;0.30;;;;;;;;;;5032083;28;20553;-83
2023/05/07 07:17:09;;;;;;;0.40;0.40;;;;;;;;;;5032742;28;20196;-85
2023/05/07 07:19:35;;;;;;;0.40;0.40;;;;;;;;;;5032886;28;20183;-83
2023/05/07 07:22:01;;;;;;;0.30;0.30;;;;;;;;;;5033651;28;20180;-86
2023/05/07 07:24:27;;;;;;;0.40;0.40;;;;;;;;;;5032186;28;20230;-85
2023/05/07 07:26:55;;;;;;;0.50;0.50;;;;;;;;;;5032251;28;20176;-86
2023/05/07 07:29:21;;;;;;;0.30;0.30;;;;;;;;;;5033262;28;20566;-83
2023/05/07 07:31:48;;;;;;;0.40;0.40;;;;;;;;;;5033851;28;20262;-85
2023/05/07 07:34:14;;;;;;;0.30;0.30;;;;;;;;;;5033067;28;20191;-80
2023/05/07 07:36:40;;;;;;;0.30;0.30;;;;;;;;;;5034323;28;20220;-82
2023/05/07 07:39:07;;;;;;;0.37;0.37;;;;;;;;;;5032993;28;20176;-85
2023/05/07 07:41:33;;;;;;;0.40;0.40;;;;;;;;;;5033277;28;20271;-85
2023/05/07 07:43:59;;;;;;;0.40;0.40;;;;;;;;;;5032390;28;20199;-86
2023/05/07 07:46:26;;;;;;;0.40;0.40;;;;;;;;;;5033455;28;20326;-84
2023/05/07 07:48:52;;;;;;;0.50;0.50;;;;;;;;;;5013591;28;20176;-83
2023/05/07 07:51:18;;;;;;;0.50;0.50;;;;;;;;;;5018341;28;20181;-82
2023/05/07 07:53:44;;;;;;;0.47;0.47;;;;;;;;;;5016126;28;20196;-80
2023/05/07 07:56:10;;;;;;;0.50;0.50;;;;;;;;;;5012304;28;20307;-85
2023/05/07 07:58:37;;;;;;;0.47;0.47;;;;;;;;;;5012449;28;20819;-83
2023/05/07 08:01:03;;;;;;;0.50;0.50;;;;;;;;;;5015495;28;20196;-82
2023/05/07 08:03:32;;;;;;;0.50;0.50;;;;;;;;;;5017779;28;20180;-81
2023/05/07 08:05:58;;;;;;;0.47;0.47;;;;;;;;;;5017866;28;20672;-82
2023/05/07 08:08:24;;;;;;;0.30;0.30;;;;;;;;;;5016826;28;20279;-82
2023/05/07 08:10:50;;;;;;;0.30;0.30;;;;;;;;;;5014400;28;20666;-82
2023/05/07 08:13:16;;;;;;;0.53;0.53;;;;;;;;;;5014665;28;20643;-83
2023/05/07 08:15:42;;;;;;;0.30;0.30;;;;;;;;;;5015898;28;20216;-82
2023/05/07 08:18:08;;;;;;;0.40;0.40;;;;;;;;;;5016333;28;20192;-84
2023/05/07 08:20:39;;;;;;;0.40;0.40;;;;;;;;;;5015194;28;20192;-84
2023/05/07 08:23:06;;;;;;;0.50;0.50;;;;;;;;;;5031589;28;20199;-83
2023/05/07 08:25:33;;;;;;;0.50;0.50;;;;;;;;;;5038248;28;20255;-82
2023/05/07 08:27:59;;;;;;;0.60;0.60;;;;;;;;;;5040586;28;20184;-82
2023/05/07 08:30:25;;;;;;;0.50;0.50;;;;;;;;;;5040273;28;20165;-83
2023/05/07 08:32:51;;;;;;;0.70;0.70;;;;;;;;;;5039857;28;20172;-84
2023/05/07 08:35:17;;;;;;;0.50;0.50;;;;;;;;;;5039676;28;20215;-83
2023/05/07 08:37:44;;;;;;;0.60;0.60;;;;;;;;;;5038044;28;20764;-84
2023/05/07 08:40:10;;;;;;;0.50;0.50;;;;;;;;;;5021622;28;20240;-85
2023/05/07 08:42:37;;;;;;;0.50;0.50;;;;;;;;;;5018120;28;20192;-84
2023/05/07 08:45:08;;;;;;;0.50;0.50;;;;;;;;;;5018039;28;20201;-83
2023/05/07 08:47:46;;;;;;;0.60;0.60;;;;;;;;;;5019810;28;20644;-82
2023/05/07 08:50:12;;;;;;;0.60;0.60;;;;;;;;;;5019755;28;20180;-84
2023/05/07 08:52:40;;;;;;;0.60;0.60;;;;;;;;;;5019950;28;20814;-83
2023/05/07 08:55:07;;;;;;;0.60;0.60;;;;;;;;;;5027242;28;20594;-85
2023/05/07 08:57:33;;;;;;;0.60;0.60;;;;;;;;;;5015111;28;20254;-84
2023/05/07 08:59:59;;;;;;;0.53;0.53;;;;;;;;;;5015771;28;20177;-85
2023/05/07 09:02:25;;;;;;;0.57;0.57;;;;;;;;;;5014873;28;20210;-83
2023/05/07 09:04:51;;;;;;;0.50;0.50;;;;;;;;;;5015790;28;20234;-86
2023/05/07 09:07:17;;;;;;;0.50;0.50;;;;;;;;;;5028551;28;20165;-84
2023/05/07 09:09:45;;;;;;;0.50;0.50;;;;;;;;;;5039465;28;20316;-83
2023/05/07 09:12:11;;;;;;;0.40;0.40;;;;;;;;;;5039165;28;20169;-83
2023/05/07 09:14:37;;;;;;;0.40;0.40;;;;;;;;;;5037489;28;20215;-82
2023/05/07 09:17:03;;;;;;;0.60;0.60;;;;;;;;;;5039182;28;20212;-83
2023/05/07 09:19:29;;;;;;;0.60;0.60;;;;;;;;;;5038986;28;20169;-84
2023/05/07 09:22:01;;;;;;;0.50;0.50;;;;;;;;;;5035845;28;20278;-82
2023/05/07 09:24:30;;;;;;;0.60;0.60;;;;;;;;;;5028546;28;20284;-82
2023/05/07 09:26:58;;;;;;;0.50;0.50;;;;;;;;;;5030587;28;20212;-83
2023/05/07 09:29:25;;;;;;;0.47;0.47;;;;;;;;;;5025427;28;20223;-86
2023/05/07 09:31:51;;;;;;;0.53;0.53;;;;;;;;;;5019798;28;20172;-83
2023/05/07 09:34:17;;;;;;;0.50;0.50;;;;;;;;;;5020548;28;20196;-83
2023/05/07 09:36:43;;;;;;;0.50;0.50;;;;;;;;;;5020159;28;20219;-83
2023/05/07 09:39:09;;;;;;;0.60;0.60;;;;;;;;;;5019443;28;20251;-83
2023/05/07 09:41:44;;;;;;;0.60;0.60;;;;;;;;;;5024234;28;20177;-81
2023/05/07 09:44:10;;;;;;;0.60;0.60;;;;;;;;;;5037259;28;20196;-83
2023/05/07 09:46:37;;;;;;;0.50;0.50;;;;;;;;;;5037252;28;20244;-83
2023/05/07 09:49:03;;;;;;;0.60;0.60;;;;;;;;;;5036938;28;20218;-83
2023/05/07 09:51:31;;;;;;;0.50;0.50;;;;;;;;;;5043695;28;20203;-82
2023/05/07 09:53:57;;;;;;;0.20;0.20;;;;;;;;;;5057859;28;20184;-82
2023/05/07 09:56:23;;;;;;;0.40;0.40;;;;;;;;;;5050903;28;20215;-84
2023/05/07 09:58:49;;;;;;;0.57;0.57;;;;;;;;;;5039863;28;20179;-83
2023/05/07 10:01:19;;;;;;;0.50;0.50;;;;;;;;;;5041470;28;20176;-82
2023/05/07 10:03:45;;;;;;;0.50;0.50;;;;;;;;;;5033566;28;20196;-85
2023/05/07 10:06:12;;;;;;;0.40;0.40;;;;;;;;;;5035432;28;20184;-85
2023/05/07 10:08:38;;;;;;;0.50;0.50;;;;;;;;;;5036747;28;20243;-83
2023/05/07 10:11:05;;;;;;;0.60;0.60;;;;;;;;;;5037854;28;20191;-83
2023/05/07 10:13:32;;;;;;;0.43;0.43;;;;;;;;;;5036911;28;20176;-83
2023/05/07 10:15:58;;;;;;;0.50;0.50;;;;;;;;;;5037965;28;20206;-83
2023/05/07 10:18:29;;;;;;;0.40;0.40;;;;;;;;;;5037457;28;20229;-84
2023/05/07 10:20:57;;;;;;;0.50;0.50;;;;;;;;;;5037038;28;20183;-85
2023/05/07 10:23:24;;;;;;;0.33;0.33;;;;;;;;;;5036613;28;20168;-84
2023/05/07 10:25:50;;;;;;;0.50;0.50;;;;;;;;;;5038127;28;20176;-83
2023/05/07 10:28:18;;;;;;;0.40;0.40;;;;;;;;;;5037681;28;20176;-83
2023/05/07 10:30:49;;;;;;;0.43;0.43;;;;;;;;;;5037608;28;20738;-82
2023/05/07 10:33:17;;;;;;;0.40;0.40;;;;;;;;;;5035573;28;20172;-82
2023/05/07 10:35:44;;;;;;;0.53;0.53;;;;;;;;;;5043117;28;20343;-83
2023/05/07 10:38:10;;;;;;;0.50;0.50;;;;;;;;;;5057549;28;20188;-82
2023/05/07 10:40:36;;;;;;;0.60;0.60;;;;;;;;;;5057666;28;20168;-82
2023/05/07 10:43:07;;;;;;;0.50;0.50;;;;;;;;;;5057291;28;20180;-82
2023/05/07 10:45:33;;;;;;;0.40;0.40;;;;;;;;;;5057021;28;20188;-82
2023/05/07 10:48:11;;;;;;;0.63;0.63;;;;;;;;;;5052909;28;20244;-81
2023/05/07 10:50:46;;;;;;;0.50;0.50;;;;;;;;;;5039796;28;20611;-82
2023/05/07 10:53:18;;;;;;;0.50;0.50;;;;;;;;;;5018766;28;20205;-82
2023/05/07 10:55:47;;;;;;;0.50;0.50;;;;;;;;;;5025766;28;20218;-83
2023/05/07 10:58:29;;;;;;;0.40;0.40;;;;;;;;;;5017402;28;20211;-83
2023/05/07 11:00:59;;;;;;;0.50;0.50;;;;;;;;;;5033199;28;20211;-84
2023/05/07 11:03:26;;;;;;;0.50;0.50;;;;;;;;;;5027143;28;20199;-83
2023/05/07 11:06:11;;;;;;;0.57;0.57;;;;;;;;;;5025084;28;20262;-84
2023/05/07 11:08:53;;;;;;;0.50;0.50;;;;;;;;;;5017400;28;20180;-83
2023/05/07 11:11:19;;;;;;;0.50;0.50;;;;;;;;;;5028442;28;20184;-83
2023/05/07 11:13:45;;;;;;;0.53;0.53;;;;;;;;;;5022562;28;20202;-82
2023/05/07 11:16:38;;;;;;;0.47;0.47;;;;;;;;;;5020583;28;20208;-83
2023/05/07 11:19:04;;;;;;;0.50;0.50;;;;;;;;;;5029830;28;20259;-82
2023/05/07 11:21:34;;;;;;;0.60;0.60;;;;;;;;;;5022171;28;20175;-83
2023/05/07 11:24:00;;;;;;;0.50;0.50;;;;;;;;;;5029244;28;20283;-86
2023/05/07 11:26:27;;;;;;;0.60;0.60;;;;;;;;;;5033291;28;20206;-84
2023/05/07 11:28:54;;;;;;;0.60;0.60;;;;;;;;;;5017346;28;20259;-83
2023/05/07 11:31:24;;;;;;;0.50;0.50;;;;;;;;;;5027190;28;20227;-82
2023/05/07 11:33:50;;;;;;;0.50;0.50;;;;;;;;;;5023744;28;20195;-82
2023/05/07 11:36:16;;;;;;;0.60;0.60;;;;;;;;;;5020193;28;20806;-83
2023/05/07 11:38:42;;;;;;;0.60;0.60;;;;;;;;;;5014730;28;20196;-83
2023/05/07 11:41:08;;;;;;;0.60;0.60;;;;;;;;;;5032722;28;20694;-89
2023/05/07 11:43:35;;;;;;;0.50;0.50;;;;;;;;;;5031744;28;20754;-87
2023/05/07 11:46:11;;;;;;;0.60;0.60;;;;;;;;;;5033093;28;20279;-86
2023/05/07 11:48:37;;;;;;;0.43;0.43;;;;;;;;;;5016904;28;20263;-84
2023/05/07 11:51:11;;;;;;;0.40;0.40;;;;;;;;;;5032486;28;20267;-89
2023/05/07 11:53:42;;;;;;;0.47;0.47;;;;;;;;;;5038426;28;20220;-87
2023/05/07 11:56:09;;;;;;;0.50;0.50;;;;;;;;;;5012295;28;20569;-90
2023/05/07 11:58:35;;;;;;;0.40;0.40;;;;;;;;;;5029294;28;20193;-89
2023/05/07 12:01:01;;;;;;;0.40;0.40;;;;;;;;;;5039228;28;20169;-84
2023/05/07 12:03:27;;;;;;;0.40;0.40;;;;;;;;;;5040048;28;20188;-86
2023/05/07 12:05:53;;;;;;;0.30;0.30;;;;;;;;;;5040561;28;20168;-89
2023/05/07 12:08:19;;;;;;;0.40;0.40;;;;;;;;;;5039956;28;20232;-89
2023/05/07 12:10:47;;;;;;;0.40;0.40;;;;;;;;;;5031060;28;20311;-81
2023/05/07 12:13:17;;;;;;;0.40;0.40;;;;;;;;;;5016665;28;20263;-83
2023/05/07 12:15:43;;;;;;;0.40;0.40;;;;;;;;;;5017813;28;20200;-83
2023/05/07 12:18:09;;;;;;;0.40;0.40;;;;;;;;;;5018277;28;20588;-83
2023/05/07 12:20:36;;;;;;;0.40;0.40;;;;;;;;;;5020445;28;20185;-83
2023/05/07 12:23:02;;;;;;;0.30;0.30;;;;;;;;;;5021598;28;20184;-82
2023/05/07 12:25:47;;;;;;;0.50;0.50;;;;;;;;;;5018898;28;20204;-81
2023/05/07 12:28:15;;;;;;;0.43;0.43;;;;;;;;;;5029841;28;20345;-81
2023/05/07 12:30:41;;;;;;;0.47;0.47;;;;;;;;;;5037419;28;20191;-81
2023/05/07 12:33:07;;;;;;;0.40;0.40;;;;;;;;;;5037678;28;20200;-80
2023/05/07 12:35:39;;;;;;;0.30;0.30;;;;;;;;;;5036832;28;20191;-81
2023/05/07 12:38:08;;;;;;;0.20;0.20;;;;;;;;;;5055013;28;20277;-83
2023/05/07 12:40:41;;;;;;;0.33;0.33;;;;;;;;;;5039877;28;20190;-85
2023/05/07 12:43:07;;;;;;;0.30;0.30;;;;;;;;;;5036054;28;20245;-83
2023/05/07 12:45:39;;;;;;;0.30;0.30;;;;;;;;;;5037120;28;20676;-83
2023/05/07 12:48:05;;;;;;;0.33;0.33;;;;;;;;;;5037872;28;20524;-80
2023/05/07 12:50:33;;;;;;;0.30;0.30;;;;;;;;;;5036884;28;20183;-81
2023/05/07 12:52:59;;;;;;;0.30;0.30;;;;;;;;;;5035155;28;20187;-82
2023/05/07 12:55:25;;;;;;;0.40;0.40;;;;;;;;;;5036985;28;20477;-82
2023/05/07 12:57:51;;;;;;;0.30;0.30;;;;;;;;;;5036816;28;20187;-82
2023/05/07 13:00:18;;;;;;;0.30;0.30;;;;;;;;;;5038511;28;20534;-83
2023/05/07 13:02:44;;;;;;;0.37;0.37;;;;;;;;;;5038500;28;20172;-84
2023/05/07 13:05:11;;;;;;;0.30;0.30;;;;;;;;;;5038170;28;20195;-85
2023/05/07 13:07:37;;;;;;;0.30;0.30;;;;;;;;;;5043246;28;20172;-83
2023/05/07 13:10:04;;;;;;;0.40;0.40;;;;;;;;;;5032400;28;20207;-85
2023/05/07 13:12:30;;;;;;;0.30;0.30;;;;;;;;;;5036697;28;20203;-83
2023/05/07 13:14:56;;;;;;;0.30;0.30;;;;;;;;;;5046002;28;20584;-83
2023/05/07 13:17:22;;;;;;;0.20;0.20;;;;;;;;;;5053205;28;20218;-84
2023/05/07 13:19:48;;;;;;;0.30;0.30;;;;;;;;;;5047546;28;20258;-82
2023/05/07 13:22:14;;;;;;;0.40;0.40;;;;;;;;;;5044002;28;20180;-89
2023/05/07 13:24:42;;;;;;;0.47;0.47;;;;;;;;;;5044928;28;20210;-85
2023/05/07 13:27:08;;;;;;;0.57;0.57;;;;;;;;;;5046112;28;20204;-85
2023/05/07 13:29:34;;;;;;;0.30;0.30;;;;;;;;;;5052206;28;20179;-86
2023/05/07 13:32:00;;;;;;;0.40;0.40;;;;;;;;;;5051708;28;20183;-83
2023/05/07 13:34:26;;;;;;;0.40;0.40;;;;;;;;;;5042851;28;20203;-85
2023/05/07 13:36:52;;;;;;;0.50;0.50;;;;;;;;;;5040931;28;20207;-86
2023/05/07 13:39:18;;;;;;;0.30;0.30;;;;;;;;;;5054751;28;20412;-86
2023/05/07 13:41:44;;;;;;;0.40;0.40;;;;;;;;;;5050791;28;20255;-83
2023/05/07 13:44:10;;;;;;;0.40;0.40;;;;;;;;;;5037729;28;20202;-85
2023/05/07 13:46:36;;;;;;;0.50;0.50;;;;;;;;;;5049355;28;20199;-85
2023/05/07 13:49:02;;;;;;;0.50;0.50;;;;;;;;;;5035748;28;20856;-84
2023/05/07 13:51:28;;;;;;;0.30;0.30;;;;;;;;;;5022949;28;20287;-85
2023/05/07 13:53:54;;;;;;;0.43;0.43;;;;;;;;;;5034861;28;20203;-82
2023/05/07 13:56:21;;;;;;;0.30;0.30;;;;;;;;;;5048747;28;20211;-82
2023/05/07 13:58:47;;;;;;;0.43;0.43;;;;;;;;;;5029205;28;20193;-82
2023/05/07 14:01:13;;;;;;;0.30;0.30;;;;;;;;;;5028662;28;20235;-84
2023/05/07 14:03:39;;;;;;;0.50;0.50;;;;;;;;;;5021143;28;20211;-82
2023/05/07 14:06:05;;;;;;;0.50;0.50;;;;;;;;;;5035167;28;20202;-81
2023/05/07 14:08:31;;;;;;;0.50;0.50;;;;;;;;;;5022532;28;20292;-81
2023/05/07 14:10:57;;;;;;;0.60;0.60;;;;;;;;;;5030184;28;20196;-81
2023/05/07 14:13:23;;;;;;;0.50;0.50;;;;;;;;;;5027565;28;20188;-81
2023/05/07 14:15:49;;;;;;;0.50;0.50;;;;;;;;;;5021739;28;20609;-81
2023/05/07 14:18:16;;;;;;;0.50;0.50;;;;;;;;;;5023914;28;20188;-82
2023/05/07 14:20:46;;;;;;;0.50;0.50;;;;;;;;;;5030027;28;20223;-82
2023/05/07 14:23:12;;;;;;;0.40;0.40;;;;;;;;;;5037189;28;20187;-81
2023/05/07 14:25:38;;;;;;;0.50;0.50;;;;;;;;;;5041976;28;20686;-80
2023/05/07 14:28:04;;;;;;;0.60;0.60;;;;;;;;;;5046111;28;20222;-81
2023/05/07 14:30:31;;;;;;;0.50;0.50;;;;;;;;;;5035268;28;20677;-81
2023/05/07 14:32:57;;;;;;;0.53;0.53;;;;;;;;;;5034356;28;20180;-81
2023/05/07 14:35:23;;;;;;;0.60;0.60;;;;;;;;;;5034968;28;20281;-86
2023/05/07 14:37:49;;;;;;;0.60;0.60;;;;;;;;;;5034672;28;20203;-82
2023/05/07 14:40:15;;;;;;;0.50;0.50;;;;;;;;;;5035167;28;20187;-82